sensor_id;sensor_type;location;lat;lon;timestamp;P1;durP1;ratioP1;P2;durP2;ratioP2
45522;SDS011;31254;51.680;5.394;2023-12-04T00:02:25;23.63;;;12.80;;
45522;SDS011;31254;51.680;5.394;2023-12-04T00:04:52;21.97;;;12.33;;
45522;SDS011;31254;51.680;5.394;2023-12-04T00:07:19;21.43;;;12.13;;
45522;SDS011;31254;51.680;5.394;2023-12-04T00:09:45;24.05;;;13.82;;
45522;SDS011;31254;51.680;5.394;2023-12-04T00:12:12;23.13;;;12.30;;
45522;SDS011;31254;51.680;5.394;2023-12-04T00:14:38;22.73;;;13.13;;
45522;SDS011;31254;51.680;5.394;2023-12-04T00:17:05;21.53;;;11.93;;
45522;SDS011;31254;51.680;5.394;2023-12-04T00:19:31;22.70;;;12.73;;
45522;SDS011;31254;51.680;5.394;2023-12-04T00:21:58;23.87;;;13.17;;
45522;SDS011;31254;51.680;5.394;2023-12-04T00:24:25;23.57;;;12.27;;
45522;SDS011;31254;51.680;5.394;2023-12-04T00:26:52;23.10;;;12.17;;
45522;SDS011;31254;51.680;5.394;2023-12-04T00:29:19;22.50;;;13.07;;
45522;SDS011;31254;51.680;5.394;2023-12-04T00:31:45;20.37;;;11.97;;
45522;SDS011;31254;51.680;5.394;2023-12-04T00:34:12;23.27;;;12.50;;
45522;SDS011;31254;51.680;5.394;2023-12-04T00:36:39;22.50;;;11.87;;
45522;SDS011;31254;51.680;5.394;2023-12-04T00:39:05;21.93;;;11.70;;
45522;SDS011;31254;51.680;5.394;2023-12-04T00:41:32;23.17;;;11.93;;
45522;SDS011;31254;51.680;5.394;2023-12-04T00:43:58;25.47;;;12.53;;
45522;SDS011;31254;51.680;5.394;2023-12-04T00:46:25;20.23;;;11.37;;
45522;SDS011;31254;51.680;5.394;2023-12-04T00:48:52;21.03;;;12.27;;
45522;SDS011;31254;51.680;5.394;2023-12-04T00:51:19;22.43;;;12.37;;
45522;SDS011;31254;51.680;5.394;2023-12-04T00:53:45;20.63;;;11.83;;
45522;SDS011;31254;51.680;5.394;2023-12-04T00:56:12;24.33;;;12.60;;
45522;SDS011;31254;51.680;5.394;2023-12-04T00:58:39;23.40;;;13.03;;
45522;SDS011;31254;51.680;5.394;2023-12-04T01:01:05;22.87;;;12.30;;
45522;SDS011;31254;51.680;5.394;2023-12-04T01:03:32;20.07;;;11.40;;
45522;SDS011;31254;51.680;5.394;2023-12-04T01:05:59;21.90;;;12.07;;
45522;SDS011;31254;51.680;5.394;2023-12-04T01:08:26;25.20;;;13.00;;
45522;SDS011;31254;51.680;5.394;2023-12-04T01:10:52;20.83;;;12.10;;
45522;SDS011;31254;51.680;5.394;2023-12-04T01:13:19;23.03;;;12.67;;
45522;SDS011;31254;51.680;5.394;2023-12-04T01:15:45;20.27;;;11.37;;
45522;SDS011;31254;51.680;5.394;2023-12-04T01:18:14;21.40;;;12.10;;
45522;SDS011;31254;51.680;5.394;2023-12-04T01:20:41;20.40;;;11.97;;
45522;SDS011;31254;51.680;5.394;2023-12-04T01:23:07;25.13;;;12.67;;
45522;SDS011;31254;51.680;5.394;2023-12-04T01:25:34;21.50;;;12.50;;
45522;SDS011;31254;51.680;5.394;2023-12-04T01:28:01;20.23;;;12.33;;
45522;SDS011;31254;51.680;5.394;2023-12-04T01:30:27;21.93;;;11.70;;
45522;SDS011;31254;51.680;5.394;2023-12-04T01:32:54;23.20;;;12.43;;
45522;SDS011;31254;51.680;5.394;2023-12-04T01:35:21;22.53;;;12.30;;
45522;SDS011;31254;51.680;5.394;2023-12-04T01:37:47;24.30;;;12.57;;
45522;SDS011;31254;51.680;5.394;2023-12-04T01:40:14;20.90;;;11.87;;
45522;SDS011;31254;51.680;5.394;2023-12-04T01:42:42;22.17;;;12.33;;
45522;SDS011;31254;51.680;5.394;2023-12-04T01:45:08;21.33;;;12.00;;
45522;SDS011;31254;51.680;5.394;2023-12-04T01:47:35;28.97;;;13.33;;
45522;SDS011;31254;51.680;5.394;2023-12-04T01:50:03;20.07;;;11.70;;
45522;SDS011;31254;51.680;5.394;2023-12-04T01:52:31;24.57;;;13.00;;
45522;SDS011;31254;51.680;5.394;2023-12-04T01:54:58;21.40;;;12.33;;
45522;SDS011;31254;51.680;5.394;2023-12-04T01:57:25;25.10;;;12.37;;
45522;SDS011;31254;51.680;5.394;2023-12-04T01:59:51;20.13;;;11.40;;
45522;SDS011;31254;51.680;5.394;2023-12-04T02:02:18;19.13;;;10.93;;
45522;SDS011;31254;51.680;5.394;2023-12-04T02:04:46;21.37;;;11.07;;
45522;SDS011;31254;51.680;5.394;2023-12-04T02:07:13;21.10;;;11.60;;
45522;SDS011;31254;51.680;5.394;2023-12-04T02:09:39;22.90;;;12.50;;
45522;SDS011;31254;51.680;5.394;2023-12-04T02:12:07;20.63;;;11.93;;
45522;SDS011;31254;51.680;5.394;2023-12-04T02:14:33;23.43;;;12.07;;
45522;SDS011;31254;51.680;5.394;2023-12-04T02:17:00;20.57;;;11.13;;
45522;SDS011;31254;51.680;5.394;2023-12-04T02:19:30;21.40;;;11.43;;
45522;SDS011;31254;51.680;5.394;2023-12-04T02:21:57;23.07;;;12.43;;
45522;SDS011;31254;51.680;5.394;2023-12-04T02:24:23;19.67;;;11.23;;
45522;SDS011;31254;51.680;5.394;2023-12-04T02:26:55;21.67;;;11.43;;
45522;SDS011;31254;51.680;5.394;2023-12-04T02:29:37;20.23;;;11.43;;
45522;SDS011;31254;51.680;5.394;2023-12-04T02:32:10;22.27;;;10.97;;
45522;SDS011;31254;51.680;5.394;2023-12-04T02:34:40;20.93;;;11.33;;
45522;SDS011;31254;51.680;5.394;2023-12-04T02:37:09;22.37;;;12.70;;
45522;SDS011;31254;51.680;5.394;2023-12-04T02:39:37;21.73;;;11.47;;
45522;SDS011;31254;51.680;5.394;2023-12-04T02:42:04;20.80;;;11.50;;
45522;SDS011;31254;51.680;5.394;2023-12-04T02:44:32;20.23;;;11.70;;
45522;SDS011;31254;51.680;5.394;2023-12-04T02:46:59;20.33;;;11.40;;
45522;SDS011;31254;51.680;5.394;2023-12-04T02:49:26;22.63;;;11.27;;
45522;SDS011;31254;51.680;5.394;2023-12-04T02:51:53;20.80;;;11.00;;
45522;SDS011;31254;51.680;5.394;2023-12-04T02:54:19;19.03;;;11.17;;
45522;SDS011;31254;51.680;5.394;2023-12-04T02:56:46;21.83;;;11.00;;
45522;SDS011;31254;51.680;5.394;2023-12-04T02:59:12;20.23;;;11.57;;
45522;SDS011;31254;51.680;5.394;2023-12-04T03:01:39;19.10;;;10.87;;
45522;SDS011;31254;51.680;5.394;2023-12-04T03:04:06;20.50;;;10.93;;
45522;SDS011;31254;51.680;5.394;2023-12-04T03:06:32;20.20;;;11.07;;
45522;SDS011;31254;51.680;5.394;2023-12-04T03:08:59;20.33;;;11.37;;
45522;SDS011;31254;51.680;5.394;2023-12-04T03:11:26;24.60;;;12.10;;
45522;SDS011;31254;51.680;5.394;2023-12-04T03:13:52;20.23;;;10.63;;
45522;SDS011;31254;51.680;5.394;2023-12-04T03:16:19;20.57;;;11.07;;
45522;SDS011;31254;51.680;5.394;2023-12-04T03:18:45;21.47;;;11.00;;
45522;SDS011;31254;51.680;5.394;2023-12-04T03:21:12;19.03;;;10.50;;
45522;SDS011;31254;51.680;5.394;2023-12-04T03:23:39;17.93;;;10.00;;
45522;SDS011;31254;51.680;5.394;2023-12-04T03:26:05;18.73;;;10.67;;
45522;SDS011;31254;51.680;5.394;2023-12-04T03:28:32;18.47;;;10.60;;
45522;SDS011;31254;51.680;5.394;2023-12-04T03:30:59;19.70;;;10.27;;
45522;SDS011;31254;51.680;5.394;2023-12-04T03:33:26;19.13;;;10.60;;
45522;SDS011;31254;51.680;5.394;2023-12-04T03:35:52;19.23;;;10.13;;
45522;SDS011;31254;51.680;5.394;2023-12-04T03:38:19;17.87;;;10.23;;
45522;SDS011;31254;51.680;5.394;2023-12-04T03:40:45;18.37;;;10.50;;
45522;SDS011;31254;51.680;5.394;2023-12-04T03:43:12;17.77;;;9.90;;
45522;SDS011;31254;51.680;5.394;2023-12-04T03:45:38;20.23;;;10.43;;
45522;SDS011;31254;51.680;5.394;2023-12-04T03:48:05;18.53;;;10.93;;
45522;SDS011;31254;51.680;5.394;2023-12-04T03:50:32;19.87;;;10.17;;
45522;SDS011;31254;51.680;5.394;2023-12-04T03:52:58;18.33;;;10.23;;
45522;SDS011;31254;51.680;5.394;2023-12-04T03:55:25;19.87;;;10.73;;
45522;SDS011;31254;51.680;5.394;2023-12-04T03:57:52;16.20;;;9.40;;
45522;SDS011;31254;51.680;5.394;2023-12-04T04:00:19;16.27;;;9.27;;
45522;SDS011;31254;51.680;5.394;2023-12-04T04:02:46;16.83;;;9.17;;
45522;SDS011;31254;51.680;5.394;2023-12-04T04:05:13;17.63;;;9.80;;
45522;SDS011;31254;51.680;5.394;2023-12-04T04:07:39;17.37;;;10.40;;
45522;SDS011;31254;51.680;5.394;2023-12-04T04:10:07;17.73;;;10.17;;
45522;SDS011;31254;51.680;5.394;2023-12-04T04:12:35;17.80;;;10.27;;
45522;SDS011;31254;51.680;5.394;2023-12-04T04:15:01;20.73;;;9.97;;
45522;SDS011;31254;51.680;5.394;2023-12-04T04:17:28;16.70;;;9.67;;
45522;SDS011;31254;51.680;5.394;2023-12-04T04:19:55;18.03;;;9.67;;
45522;SDS011;31254;51.680;5.394;2023-12-04T04:22:22;18.00;;;9.90;;
45522;SDS011;31254;51.680;5.394;2023-12-04T04:24:49;17.87;;;10.27;;
45522;SDS011;31254;51.680;5.394;2023-12-04T04:27:15;14.93;;;8.90;;
45522;SDS011;31254;51.680;5.394;2023-12-04T04:29:42;15.90;;;9.23;;
45522;SDS011;31254;51.680;5.394;2023-12-04T04:32:08;17.33;;;9.53;;
45522;SDS011;31254;51.680;5.394;2023-12-04T04:34:38;17.17;;;9.73;;
45522;SDS011;31254;51.680;5.394;2023-12-04T04:37:04;16.47;;;9.10;;
45522;SDS011;31254;51.680;5.394;2023-12-04T04:39:31;17.47;;;9.30;;
45522;SDS011;31254;51.680;5.394;2023-12-04T04:41:58;16.00;;;9.40;;
45522;SDS011;31254;51.680;5.394;2023-12-04T04:44:24;15.70;;;8.63;;
45522;SDS011;31254;51.680;5.394;2023-12-04T04:46:53;20.00;;;9.43;;
45522;SDS011;31254;51.680;5.394;2023-12-04T04:49:20;17.23;;;9.13;;
45522;SDS011;31254;51.680;5.394;2023-12-04T04:51:46;17.13;;;9.50;;
45522;SDS011;31254;51.680;5.394;2023-12-04T04:54:13;16.43;;;8.67;;
45522;SDS011;31254;51.680;5.394;2023-12-04T04:56:39;14.13;;;8.20;;
45522;SDS011;31254;51.680;5.394;2023-12-04T04:59:06;15.47;;;9.40;;
45522;SDS011;31254;51.680;5.394;2023-12-04T05:01:32;16.63;;;9.03;;
45522;SDS011;31254;51.680;5.394;2023-12-04T05:03:59;14.53;;;8.30;;
45522;SDS011;31254;51.680;5.394;2023-12-04T05:06:26;15.07;;;8.13;;
45522;SDS011;31254;51.680;5.394;2023-12-04T05:08:53;15.40;;;9.07;;
45522;SDS011;31254;51.680;5.394;2023-12-04T05:11:19;15.40;;;8.93;;
45522;SDS011;31254;51.680;5.394;2023-12-04T05:13:46;18.73;;;8.63;;
45522;SDS011;31254;51.680;5.394;2023-12-04T05:16:13;17.93;;;8.73;;
45522;SDS011;31254;51.680;5.394;2023-12-04T05:18:40;18.37;;;9.27;;
45522;SDS011;31254;51.680;5.394;2023-12-04T05:21:10;15.53;;;8.80;;
45522;SDS011;31254;51.680;5.394;2023-12-04T05:23:37;15.73;;;9.30;;
45522;SDS011;31254;51.680;5.394;2023-12-04T05:26:05;16.07;;;9.10;;
45522;SDS011;31254;51.680;5.394;2023-12-04T05:28:32;17.03;;;8.63;;
45522;SDS011;31254;51.680;5.394;2023-12-04T05:30:59;15.07;;;8.27;;
45522;SDS011;31254;51.680;5.394;2023-12-04T05:33:26;16.07;;;9.07;;
45522;SDS011;31254;51.680;5.394;2023-12-04T05:35:53;17.37;;;9.57;;
45522;SDS011;31254;51.680;5.394;2023-12-04T05:38:20;14.57;;;8.73;;
45522;SDS011;31254;51.680;5.394;2023-12-04T05:40:46;14.00;;;8.07;;
45522;SDS011;31254;51.680;5.394;2023-12-04T05:43:13;19.10;;;9.63;;
45522;SDS011;31254;51.680;5.394;2023-12-04T05:45:39;17.63;;;8.63;;
45522;SDS011;31254;51.680;5.394;2023-12-04T05:48:06;14.03;;;9.00;;
45522;SDS011;31254;51.680;5.394;2023-12-04T05:50:33;15.07;;;8.90;;
45522;SDS011;31254;51.680;5.394;2023-12-04T05:53:00;16.27;;;9.33;;
45522;SDS011;31254;51.680;5.394;2023-12-04T05:55:26;15.73;;;8.57;;
45522;SDS011;31254;51.680;5.394;2023-12-04T05:57:53;12.73;;;7.90;;
45522;SDS011;31254;51.680;5.394;2023-12-04T06:00:19;14.80;;;8.70;;
45522;SDS011;31254;51.680;5.394;2023-12-04T06:02:51;14.33;;;8.57;;
45522;SDS011;31254;51.680;5.394;2023-12-04T06:05:18;15.47;;;9.17;;
45522;SDS011;31254;51.680;5.394;2023-12-04T06:07:45;14.77;;;8.63;;
45522;SDS011;31254;51.680;5.394;2023-12-04T06:10:12;15.67;;;9.00;;
45522;SDS011;31254;51.680;5.394;2023-12-04T06:12:38;15.00;;;9.00;;
45522;SDS011;31254;51.680;5.394;2023-12-04T06:15:05;14.93;;;8.87;;
45522;SDS011;31254;51.680;5.394;2023-12-04T06:17:32;14.87;;;8.90;;
45522;SDS011;31254;51.680;5.394;2023-12-04T06:19:59;15.77;;;8.43;;
45522;SDS011;31254;51.680;5.394;2023-12-04T06:22:25;14.57;;;8.77;;
45522;SDS011;31254;51.680;5.394;2023-12-04T06:24:52;13.60;;;8.60;;
45522;SDS011;31254;51.680;5.394;2023-12-04T06:27:19;15.40;;;8.57;;
45522;SDS011;31254;51.680;5.394;2023-12-04T06:29:47;15.40;;;8.70;;
45522;SDS011;31254;51.680;5.394;2023-12-04T06:32:18;14.70;;;8.83;;
45522;SDS011;31254;51.680;5.394;2023-12-04T06:34:45;15.60;;;8.60;;
45522;SDS011;31254;51.680;5.394;2023-12-04T06:37:13;14.73;;;8.83;;
45522;SDS011;31254;51.680;5.394;2023-12-04T06:39:40;16.87;;;8.67;;
45522;SDS011;31254;51.680;5.394;2023-12-04T06:42:07;15.23;;;8.27;;
45522;SDS011;31254;51.680;5.394;2023-12-04T06:44:35;13.73;;;8.13;;
45522;SDS011;31254;51.680;5.394;2023-12-04T06:47:01;16.47;;;9.33;;
45522;SDS011;31254;51.680;5.394;2023-12-04T06:49:29;14.37;;;8.57;;
45522;SDS011;31254;51.680;5.394;2023-12-04T06:51:58;15.33;;;8.57;;
45522;SDS011;31254;51.680;5.394;2023-12-04T06:54:25;16.07;;;8.30;;
45522;SDS011;31254;51.680;5.394;2023-12-04T06:56:52;14.70;;;8.33;;
45522;SDS011;31254;51.680;5.394;2023-12-04T06:59:19;14.13;;;8.30;;
45522;SDS011;31254;51.680;5.394;2023-12-04T07:01:46;14.80;;;8.20;;
45522;SDS011;31254;51.680;5.394;2023-12-04T07:04:13;13.00;;;8.07;;
45522;SDS011;31254;51.680;5.394;2023-12-04T07:06:47;15.33;;;8.60;;
45522;SDS011;31254;51.680;5.394;2023-12-04T07:09:14;17.17;;;8.27;;
45522;SDS011;31254;51.680;5.394;2023-12-04T07:11:43;12.20;;;7.37;;
45522;SDS011;31254;51.680;5.394;2023-12-04T07:14:10;13.50;;;8.00;;
45522;SDS011;31254;51.680;5.394;2023-12-04T07:16:40;17.23;;;8.43;;
45522;SDS011;31254;51.680;5.394;2023-12-04T07:19:08;12.90;;;8.27;;
45522;SDS011;31254;51.680;5.394;2023-12-04T07:21:36;15.13;;;7.23;;
45522;SDS011;31254;51.680;5.394;2023-12-04T07:24:03;12.57;;;7.77;;
45522;SDS011;31254;51.680;5.394;2023-12-04T07:26:30;13.50;;;7.57;;
45522;SDS011;31254;51.680;5.394;2023-12-04T07:28:57;16.80;;;7.33;;
45522;SDS011;31254;51.680;5.394;2023-12-04T07:31:23;13.73;;;7.50;;
45522;SDS011;31254;51.680;5.394;2023-12-04T07:33:50;13.90;;;7.33;;
45522;SDS011;31254;51.680;5.394;2023-12-04T07:36:16;15.90;;;7.63;;
45522;SDS011;31254;51.680;5.394;2023-12-04T07:38:43;14.73;;;7.70;;
45522;SDS011;31254;51.680;5.394;2023-12-04T07:41:09;13.20;;;7.33;;
45522;SDS011;31254;51.680;5.394;2023-12-04T07:43:36;12.43;;;7.27;;
45522;SDS011;31254;51.680;5.394;2023-12-04T07:46:03;13.23;;;7.33;;
45522;SDS011;31254;51.680;5.394;2023-12-04T07:48:30;11.30;;;6.93;;
45522;SDS011;31254;51.680;5.394;2023-12-04T07:50:57;15.57;;;7.27;;
45522;SDS011;31254;51.680;5.394;2023-12-04T07:53:23;12.70;;;6.93;;
45522;SDS011;31254;51.680;5.394;2023-12-04T07:55:50;10.57;;;6.60;;
45522;SDS011;31254;51.680;5.394;2023-12-04T07:58:17;10.90;;;6.50;;
45522;SDS011;31254;51.680;5.394;2023-12-04T08:00:44;11.43;;;7.03;;
45522;SDS011;31254;51.680;5.394;2023-12-04T08:03:11;18.40;;;6.50;;
45522;SDS011;31254;51.680;5.394;2023-12-04T08:05:37;12.10;;;6.50;;
45522;SDS011;31254;51.680;5.394;2023-12-04T08:08:04;12.10;;;6.90;;
45522;SDS011;31254;51.680;5.394;2023-12-04T08:10:31;11.77;;;6.93;;
45522;SDS011;31254;51.680;5.394;2023-12-04T08:12:58;12.70;;;6.93;;
45522;SDS011;31254;51.680;5.394;2023-12-04T08:15:25;11.40;;;6.40;;
45522;SDS011;31254;51.680;5.394;2023-12-04T08:17:52;10.27;;;6.03;;
45522;SDS011;31254;51.680;5.394;2023-12-04T08:20:18;10.60;;;6.33;;
45522;SDS011;31254;51.680;5.394;2023-12-04T08:23:01;11.27;;;6.20;;
45522;SDS011;31254;51.680;5.394;2023-12-04T08:25:28;15.37;;;6.40;;
45522;SDS011;31254;51.680;5.394;2023-12-04T08:27:54;11.00;;;6.37;;
45522;SDS011;31254;51.680;5.394;2023-12-04T08:30:21;11.30;;;6.40;;
45522;SDS011;31254;51.680;5.394;2023-12-04T08:32:47;12.43;;;7.20;;
45522;SDS011;31254;51.680;5.394;2023-12-04T08:35:14;11.47;;;7.03;;
45522;SDS011;31254;51.680;5.394;2023-12-04T08:37:41;9.93;;;6.43;;
45522;SDS011;31254;51.680;5.394;2023-12-04T08:40:08;10.10;;;6.13;;
45522;SDS011;31254;51.680;5.394;2023-12-04T08:42:35;11.40;;;6.63;;
45522;SDS011;31254;51.680;5.394;2023-12-04T08:45:02;11.47;;;6.47;;
45522;SDS011;31254;51.680;5.394;2023-12-04T08:47:28;12.33;;;6.33;;
45522;SDS011;31254;51.680;5.394;2023-12-04T08:49:55;11.40;;;6.33;;
45522;SDS011;31254;51.680;5.394;2023-12-04T08:52:22;11.37;;;5.90;;
45522;SDS011;31254;51.680;5.394;2023-12-04T08:54:48;9.93;;;6.30;;
45522;SDS011;31254;51.680;5.394;2023-12-04T08:57:15;10.97;;;6.43;;
45522;SDS011;31254;51.680;5.394;2023-12-04T08:59:42;9.70;;;6.40;;
45522;SDS011;31254;51.680;5.394;2023-12-04T09:02:08;11.17;;;6.30;;
45522;SDS011;31254;51.680;5.394;2023-12-04T09:04:38;9.77;;;5.90;;
45522;SDS011;31254;51.680;5.394;2023-12-04T09:07:05;10.02;;;7.25;;
45522;SDS011;31254;51.680;5.394;2023-12-04T09:09:35;11.13;;;6.80;;
45522;SDS011;31254;51.680;5.394;2023-12-04T09:12:01;10.10;;;6.13;;
45522;SDS011;31254;51.680;5.394;2023-12-04T09:14:29;10.17;;;6.00;;
45522;SDS011;31254;51.680;5.394;2023-12-04T09:16:55;9.53;;;5.83;;
45522;SDS011;31254;51.680;5.394;2023-12-04T09:19:22;10.73;;;6.53;;
45522;SDS011;31254;51.680;5.394;2023-12-04T09:21:49;11.00;;;6.13;;
45522;SDS011;31254;51.680;5.394;2023-12-04T09:24:28;10.03;;;6.30;;
45522;SDS011;31254;51.680;5.394;2023-12-04T09:26:55;10.50;;;5.93;;
45522;SDS011;31254;51.680;5.394;2023-12-04T09:29:21;12.73;;;6.40;;
45522;SDS011;31254;51.680;5.394;2023-12-04T09:31:51;10.27;;;6.17;;
45522;SDS011;31254;51.680;5.394;2023-12-04T09:34:18;10.87;;;6.10;;
45522;SDS011;31254;51.680;5.394;2023-12-04T09:36:46;10.13;;;6.07;;
45522;SDS011;31254;51.680;5.394;2023-12-04T09:39:16;20.93;;;6.00;;
45522;SDS011;31254;51.680;5.394;2023-12-04T09:41:43;10.90;;;6.00;;
45522;SDS011;31254;51.680;5.394;2023-12-04T09:44:10;9.47;;;5.77;;
45522;SDS011;31254;51.680;5.394;2023-12-04T09:46:37;13.33;;;6.70;;
45522;SDS011;31254;51.680;5.394;2023-12-04T09:49:04;10.83;;;5.97;;
45522;SDS011;31254;51.680;5.394;2023-12-04T09:51:31;11.30;;;6.03;;
45522;SDS011;31254;51.680;5.394;2023-12-04T09:53:59;10.53;;;5.77;;
45522;SDS011;31254;51.680;5.394;2023-12-04T09:56:29;11.30;;;6.00;;
45522;SDS011;31254;51.680;5.394;2023-12-04T09:58:58;13.47;;;6.27;;
45522;SDS011;31254;51.680;5.394;2023-12-04T10:01:28;11.90;;;6.30;;
45522;SDS011;31254;51.680;5.394;2023-12-04T10:03:56;11.63;;;6.03;;
45522;SDS011;31254;51.680;5.394;2023-12-04T10:06:28;12.10;;;6.40;;
45522;SDS011;31254;51.680;5.394;2023-12-04T10:08:57;11.47;;;6.07;;
45522;SDS011;31254;51.680;5.394;2023-12-04T10:11:24;9.13;;;5.57;;
45522;SDS011;31254;51.680;5.394;2023-12-04T10:13:54;11.93;;;6.37;;
45522;SDS011;31254;51.680;5.394;2023-12-04T10:16:32;12.77;;;5.77;;
45522;SDS011;31254;51.680;5.394;2023-12-04T10:19:21;10.60;;;5.97;;
45522;SDS011;31254;51.680;5.394;2023-12-04T10:21:50;11.23;;;6.40;;
45522;SDS011;31254;51.680;5.394;2023-12-04T10:27:13;9.87;;;6.10;;
45522;SDS011;31254;51.680;5.394;2023-12-04T10:29:46;12.00;;;6.43;;
45522;SDS011;31254;51.680;5.394;2023-12-04T10:32:20;13.67;;;6.70;;
45522;SDS011;31254;51.680;5.394;2023-12-04T10:34:48;11.80;;;6.53;;
45522;SDS011;31254;51.680;5.394;2023-12-04T10:37:15;11.97;;;6.70;;
45522;SDS011;31254;51.680;5.394;2023-12-04T10:39:46;15.40;;;6.83;;
45522;SDS011;31254;51.680;5.394;2023-12-04T10:42:26;12.30;;;6.70;;
45522;SDS011;31254;51.680;5.394;2023-12-04T10:44:55;13.23;;;6.70;;
45522;SDS011;31254;51.680;5.394;2023-12-04T10:47:24;11.57;;;6.83;;
45522;SDS011;31254;51.680;5.394;2023-12-04T10:49:51;10.97;;;7.20;;
45522;SDS011;31254;51.680;5.394;2023-12-04T10:52:19;12.77;;;7.33;;
45522;SDS011;31254;51.680;5.394;2023-12-04T10:54:46;12.40;;;7.00;;
45522;SDS011;31254;51.680;5.394;2023-12-04T10:57:16;11.77;;;6.80;;
45522;SDS011;31254;51.680;5.394;2023-12-04T10:59:58;11.13;;;6.87;;
45522;SDS011;31254;51.680;5.394;2023-12-04T11:02:30;11.50;;;6.90;;
45522;SDS011;31254;51.680;5.394;2023-12-04T11:05:02;12.17;;;6.90;;
45522;SDS011;31254;51.680;5.394;2023-12-04T11:07:41;12.53;;;7.20;;
45522;SDS011;31254;51.680;5.394;2023-12-04T11:10:31;12.53;;;7.27;;
45522;SDS011;31254;51.680;5.394;2023-12-04T11:13:13;12.50;;;8.17;;
45522;SDS011;31254;51.680;5.394;2023-12-04T11:15:44;12.17;;;7.07;;
45522;SDS011;31254;51.680;5.394;2023-12-04T11:18:16;12.83;;;7.13;;
45522;SDS011;31254;51.680;5.394;2023-12-04T11:20:54;13.60;;;7.57;;
45522;SDS011;31254;51.680;5.394;2023-12-04T11:23:23;14.80;;;8.87;;
45522;SDS011;31254;51.680;5.394;2023-12-04T11:25:51;14.77;;;8.40;;
45522;SDS011;31254;51.680;5.394;2023-12-04T11:28:20;15.73;;;8.03;;
45522;SDS011;31254;51.680;5.394;2023-12-04T11:30:46;14.60;;;7.77;;
45522;SDS011;31254;51.680;5.394;2023-12-04T11:33:14;13.27;;;8.27;;
45522;SDS011;31254;51.680;5.394;2023-12-04T11:35:40;15.37;;;8.43;;
45522;SDS011;31254;51.680;5.394;2023-12-04T11:38:07;12.60;;;7.83;;
45522;SDS011;31254;51.680;5.394;2023-12-04T11:40:35;13.73;;;7.87;;
45522;SDS011;31254;51.680;5.394;2023-12-04T11:45:49;13.47;;;7.80;;
45522;SDS011;31254;51.680;5.394;2023-12-04T11:48:16;12.87;;;8.33;;
45522;SDS011;31254;51.680;5.394;2023-12-04T11:50:43;13.87;;;8.13;;
45522;SDS011;31254;51.680;5.394;2023-12-04T11:53:11;12.93;;;7.67;;
45522;SDS011;31254;51.680;5.394;2023-12-04T11:55:40;13.63;;;8.13;;
45522;SDS011;31254;51.680;5.394;2023-12-04T11:58:08;15.87;;;9.00;;
45522;SDS011;31254;51.680;5.394;2023-12-04T12:00:37;14.23;;;8.37;;
45522;SDS011;31254;51.680;5.394;2023-12-04T12:03:05;12.63;;;7.50;;
45522;SDS011;31254;51.680;5.394;2023-12-04T12:05:48;13.57;;;8.27;;
45522;SDS011;31254;51.680;5.394;2023-12-04T12:08:19;13.00;;;7.87;;
45522;SDS011;31254;51.680;5.394;2023-12-04T12:10:45;13.17;;;7.47;;
45522;SDS011;31254;51.680;5.394;2023-12-04T12:13:13;15.20;;;8.37;;
45522;SDS011;31254;51.680;5.394;2023-12-04T12:15:40;14.50;;;8.37;;
45522;SDS011;31254;51.680;5.394;2023-12-04T12:18:06;15.33;;;8.73;;
45522;SDS011;31254;51.680;5.394;2023-12-04T12:20:36;15.97;;;8.10;;
45522;SDS011;31254;51.680;5.394;2023-12-04T12:23:03;14.07;;;8.80;;
45522;SDS011;31254;51.680;5.394;2023-12-04T12:25:29;13.67;;;7.87;;
45522;SDS011;31254;51.680;5.394;2023-12-04T12:27:56;14.10;;;7.97;;
45522;SDS011;31254;51.680;5.394;2023-12-04T12:30:23;13.87;;;8.33;;
45522;SDS011;31254;51.680;5.394;2023-12-04T12:32:50;14.00;;;8.27;;
45522;SDS011;31254;51.680;5.394;2023-12-04T12:35:18;14.83;;;7.83;;
45522;SDS011;31254;51.680;5.394;2023-12-04T12:37:45;14.97;;;8.70;;
45522;SDS011;31254;51.680;5.394;2023-12-04T12:40:12;13.33;;;8.00;;
45522;SDS011;31254;51.680;5.394;2023-12-04T12:42:39;14.00;;;8.37;;
45522;SDS011;31254;51.680;5.394;2023-12-04T12:45:10;13.33;;;8.23;;
45522;SDS011;31254;51.680;5.394;2023-12-04T12:47:45;14.33;;;8.10;;
45522;SDS011;31254;51.680;5.394;2023-12-04T12:50:12;14.77;;;8.80;;
45522;SDS011;31254;51.680;5.394;2023-12-04T12:52:42;15.03;;;8.70;;
45522;SDS011;31254;51.680;5.394;2023-12-04T12:55:09;15.43;;;9.03;;
45522;SDS011;31254;51.680;5.394;2023-12-04T12:57:36;13.30;;;8.40;;
45522;SDS011;31254;51.680;5.394;2023-12-04T13:00:04;15.17;;;9.17;;
45522;SDS011;31254;51.680;5.394;2023-12-04T13:02:33;14.77;;;8.57;;
45522;SDS011;31254;51.680;5.394;2023-12-04T13:05:01;14.07;;;7.97;;
45522;SDS011;31254;51.680;5.394;2023-12-04T13:07:31;13.93;;;8.43;;
45522;SDS011;31254;51.680;5.394;2023-12-04T13:09:58;12.37;;;7.97;;
45522;SDS011;31254;51.680;5.394;2023-12-04T13:12:24;13.83;;;7.77;;
45522;SDS011;31254;51.680;5.394;2023-12-04T13:14:51;13.70;;;8.67;;
45522;SDS011;31254;51.680;5.394;2023-12-04T13:17:17;15.33;;;8.33;;
45522;SDS011;31254;51.680;5.394;2023-12-04T13:19:44;14.57;;;8.63;;
45522;SDS011;31254;51.680;5.394;2023-12-04T13:22:10;12.30;;;8.00;;
45522;SDS011;31254;51.680;5.394;2023-12-04T13:24:37;14.73;;;8.47;;
45522;SDS011;31254;51.680;5.394;2023-12-04T13:27:04;14.43;;;8.93;;
45522;SDS011;31254;51.680;5.394;2023-12-04T13:29:31;13.07;;;8.77;;
45522;SDS011;31254;51.680;5.394;2023-12-04T13:31:59;15.77;;;8.30;;
45522;SDS011;31254;51.680;5.394;2023-12-04T13:34:26;13.53;;;8.27;;
45522;SDS011;31254;51.680;5.394;2023-12-04T13:36:52;12.17;;;7.80;;
45522;SDS011;31254;51.680;5.394;2023-12-04T13:39:19;12.93;;;8.27;;
45522;SDS011;31254;51.680;5.394;2023-12-04T13:41:53;14.40;;;7.53;;
45522;SDS011;31254;51.680;5.394;2023-12-04T13:44:39;14.63;;;8.27;;
45522;SDS011;31254;51.680;5.394;2023-12-04T13:47:07;12.37;;;7.90;;
45522;SDS011;31254;51.680;5.394;2023-12-04T13:49:33;14.67;;;8.23;;
45522;SDS011;31254;51.680;5.394;2023-12-04T13:52:00;13.33;;;8.20;;
45522;SDS011;31254;51.680;5.394;2023-12-04T13:54:27;15.17;;;8.03;;
45522;SDS011;31254;51.680;5.394;2023-12-04T13:57:09;14.20;;;8.63;;
45522;SDS011;31254;51.680;5.394;2023-12-04T13:59:40;14.10;;;8.53;;
45522;SDS011;31254;51.680;5.394;2023-12-04T14:02:07;15.93;;;8.70;;
45522;SDS011;31254;51.680;5.394;2023-12-04T14:04:37;16.70;;;8.57;;
45522;SDS011;31254;51.680;5.394;2023-12-04T14:07:06;14.87;;;8.73;;
45522;SDS011;31254;51.680;5.394;2023-12-04T14:09:35;12.03;;;8.17;;
45522;SDS011;31254;51.680;5.394;2023-12-04T14:12:02;15.50;;;7.73;;
45522;SDS011;31254;51.680;5.394;2023-12-04T14:14:30;14.23;;;8.37;;
45522;SDS011;31254;51.680;5.394;2023-12-04T14:16:56;11.13;;;7.63;;
45522;SDS011;31254;51.680;5.394;2023-12-04T14:19:23;16.10;;;8.90;;
45522;SDS011;31254;51.680;5.394;2023-12-04T14:21:49;12.93;;;8.13;;
45522;SDS011;31254;51.680;5.394;2023-12-04T14:24:17;13.77;;;8.57;;
45522;SDS011;31254;51.680;5.394;2023-12-04T14:26:44;13.23;;;8.17;;
45522;SDS011;31254;51.680;5.394;2023-12-04T14:29:10;15.37;;;8.27;;
45522;SDS011;31254;51.680;5.394;2023-12-04T14:31:39;13.73;;;7.90;;
45522;SDS011;31254;51.680;5.394;2023-12-04T14:34:06;15.03;;;8.57;;
45522;SDS011;31254;51.680;5.394;2023-12-04T14:36:33;11.20;;;7.83;;
45522;SDS011;31254;51.680;5.394;2023-12-04T14:39:00;12.23;;;8.07;;
45522;SDS011;31254;51.680;5.394;2023-12-04T14:41:27;15.57;;;7.80;;